createdAt,value
2023-04-22T00:01:40.705Z,4.90
2023-04-22T00:06:44.631Z,4.10
2023-04-22T00:11:45.294Z,4.40
2023-04-22T00:16:45.859Z,4.20
2023-04-22T00:21:46.733Z,4.70
2023-04-22T00:26:49.380Z,4.60
2023-04-22T00:31:49.065Z,5.20
2023-04-22T00:36:49.209Z,5.30
2023-04-22T00:41:49.825Z,5.20
2023-04-22T00:46:50.449Z,4.70
2023-04-22T00:51:53.139Z,5.50
2023-04-22T00:56:53.441Z,6.00
2023-04-22T01:01:55.474Z,6.50
2023-04-22T01:06:57.169Z,5.00
2023-04-22T01:18:42.512Z,5.50
2023-04-22T01:31:44.298Z,6.30
2023-04-22T01:36:53.633Z,6.30
2023-04-22T01:43:08.596Z,7.40
2023-04-22T01:48:09.678Z,6.60
2023-04-22T01:53:14.174Z,6.40
2023-04-22T01:58:15.040Z,5.50
2023-04-22T02:03:15.630Z,6.30
2023-04-22T02:08:15.896Z,6.30
2023-04-22T02:13:16.781Z,5.70
2023-04-22T02:18:18.386Z,7.00
2023-04-22T02:23:18.805Z,7.20
2023-04-22T02:28:18.513Z,5.40
2023-04-22T02:33:19.152Z,4.30
2023-04-22T02:38:18.911Z,4.50
2023-04-22T02:43:18.941Z,5.80
2023-04-22T02:48:21.592Z,4.80
2023-04-22T02:53:21.108Z,5.40
2023-04-22T02:58:20.515Z,5.60
2023-04-22T03:03:22.234Z,6.20
2023-04-22T03:08:26.608Z,6.20
2023-04-22T03:13:27.232Z,5.70
2023-04-22T03:25:53.427Z,5.80
2023-04-22T03:30:53.634Z,5.70
2023-04-22T03:36:51.082Z,5.20
2023-04-22T03:42:33.968Z,5.80
2023-04-22T03:47:36.669Z,6.20
2023-04-22T03:52:43.252Z,6.10
2023-04-22T03:57:45.687Z,5.90
2023-04-22T04:02:46.238Z,6.20
2023-04-22T04:07:52.883Z,6.20
2023-04-22T04:12:59.182Z,5.80
2023-04-22T04:18:02.448Z,5.50
2023-04-22T04:23:21.243Z,5.50
2023-04-22T04:28:38.452Z,4.90
2023-04-22T04:33:40.470Z,4.40
2023-04-22T04:38:45.857Z,5.20
2023-04-22T04:43:50.816Z,4.50
2023-04-22T04:49:02.743Z,4.60
2023-04-22T04:54:08.985Z,3.40
2023-04-22T04:59:10.848Z,3.10
2023-04-22T05:04:14.987Z,3.40
2023-04-22T05:09:54.341Z,2.90
2023-04-22T05:15:42.917Z,2.80
2023-04-22T05:21:53.350Z,3.20
2023-04-22T05:27:23.338Z,2.90
2023-04-22T05:39:55.593Z,3.40
2023-04-22T05:45:47.528Z,3.40
2023-04-22T05:52:21.035Z,2.90
2023-04-22T05:58:39.202Z,3.60
2023-04-22T06:12:23.962Z,4.00
2023-04-22T06:18:17.141Z,2.70
2023-04-22T06:29:48.225Z,3.50
2023-04-22T06:35:45.690Z,4.00
2023-04-22T06:41:20.194Z,3.60
2023-04-22T06:47:04.906Z,4.50
2023-04-22T06:52:40.507Z,3.70
2023-04-22T06:57:50.025Z,3.10
2023-04-22T07:08:47.402Z,3.80
2023-04-22T07:14:28.538Z,3.40
2023-04-22T07:20:35.511Z,3.80
2023-04-22T07:26:27.858Z,3.20
2023-04-22T07:32:26.077Z,2.10
2023-04-22T07:38:31.943Z,3.50
2023-04-22T07:43:35.378Z,3.60
2023-04-22T07:49:09.829Z,3.60
2023-04-22T08:00:58.573Z,2.30
2023-04-22T08:06:47.966Z,1.70
2023-04-22T08:11:51.835Z,1.80
2023-04-22T08:16:52.935Z,1.90
2023-04-22T08:22:43.787Z,1.80
2023-04-22T08:28:25.991Z,1.80
2023-04-22T08:33:27.379Z,1.70
2023-04-22T08:38:28.381Z,1.60
2023-04-22T08:43:30.189Z,1.70
2023-04-22T08:54:46.645Z,1.60
2023-04-22T08:59:46.708Z,1.00
2023-04-22T09:05:01.760Z,1.40
2023-04-22T09:10:05.697Z,1.60
2023-04-22T09:15:12.439Z,1.70
2023-04-22T09:20:16.514Z,1.50
2023-04-22T09:25:22.799Z,1.40
2023-04-22T09:30:35.215Z,1.30
2023-04-22T09:35:40.119Z,1.60
2023-04-22T09:40:48.396Z,1.70
2023-04-22T09:47:24.709Z,1.50
2023-04-22T09:52:29.068Z,1.60
2023-04-22T09:57:32.077Z,1.10
2023-04-22T10:02:39.619Z,1.10
2023-04-22T10:07:45.057Z,1.30
2023-04-22T10:12:44.977Z,1.40
2023-04-22T10:17:48.802Z,1.50
2023-04-22T10:23:40.624Z,1.30
2023-04-22T10:29:27.131Z,1.40
2023-04-22T10:41:54.104Z,1.30
2023-04-22T10:53:53.246Z,1.80
2023-04-22T10:58:57.279Z,1.90
2023-04-22T11:04:20.027Z,1.50
2023-04-22T11:09:19.957Z,1.40
2023-04-22T11:14:24.225Z,1.30
2023-04-22T11:19:25.467Z,1.60
2023-04-22T11:24:25.622Z,1.50
2023-04-22T11:29:25.954Z,1.10
2023-04-22T11:34:28.417Z,1.10
2023-04-22T11:39:55.974Z,1.20
2023-04-22T11:45:01.718Z,1.20
2023-04-22T11:50:05.463Z,1.50
2023-04-22T11:55:05.239Z,1.60
2023-04-22T12:00:05.633Z,1.50
2023-04-22T12:05:06.116Z,1.50
2023-04-22T12:10:08.233Z,1.50
2023-04-22T12:15:18.173Z,1.30
2023-04-22T12:20:18.308Z,2.10
2023-04-22T12:25:23.346Z,1.80
2023-04-22T12:30:24.861Z,1.30
2023-04-22T12:35:24.822Z,1.60
2023-04-22T12:40:24.810Z,1.80
2023-04-22T12:45:25.033Z,1.60
2023-04-22T12:50:25.036Z,1.40
2023-04-22T12:55:25.217Z,1.70
2023-04-22T13:00:26.659Z,1.50
2023-04-22T13:05:26.993Z,2.00
2023-04-22T13:10:28.374Z,1.50
2023-04-22T13:15:30.327Z,2.20
2023-04-22T13:20:30.288Z,1.80
2023-04-22T13:25:32.762Z,1.30
2023-04-22T13:30:32.733Z,2.20
2023-04-22T13:35:32.496Z,1.90
2023-04-22T13:40:31.834Z,2.20
2023-04-22T13:45:51.889Z,2.50
2023-04-22T13:50:51.260Z,2.00
2023-04-22T13:55:50.891Z,2.20
2023-04-22T14:00:50.824Z,2.40
2023-04-22T14:05:49.870Z,2.10
2023-04-22T14:10:48.615Z,1.70
2023-04-22T14:15:47.511Z,1.50
2023-04-22T14:20:48.407Z,2.50
2023-04-22T14:25:48.624Z,2.00
2023-04-22T14:30:49.298Z,1.60
2023-04-22T14:35:49.126Z,1.60
2023-04-22T14:40:48.737Z,1.70
2023-04-22T14:45:49.386Z,2.50
2023-04-22T14:50:49.044Z,2.10
2023-04-22T14:55:48.874Z,2.20
2023-04-22T15:00:49.115Z,1.90
2023-04-22T15:05:49.567Z,2.50
2023-04-22T15:10:49.505Z,2.60
2023-04-22T15:15:52.240Z,3.80
2023-04-22T15:20:52.717Z,3.00
2023-04-22T15:25:51.855Z,3.60
2023-04-22T15:30:50.972Z,3.60
2023-04-22T15:35:50.692Z,3.40
2023-04-22T15:40:49.655Z,3.20
2023-04-22T15:45:49.263Z,2.60
2023-04-22T15:50:48.400Z,2.40
2023-04-22T15:55:48.752Z,2.00
2023-04-22T16:00:47.732Z,2.90
2023-04-22T16:05:47.283Z,2.30
2023-04-22T16:10:48.105Z,2.80
2023-04-22T16:15:47.881Z,3.10
2023-04-22T16:20:48.431Z,3.00
2023-04-22T16:25:48.487Z,3.50
2023-04-22T16:30:47.421Z,3.30
2023-04-22T16:35:47.132Z,3.50
2023-04-22T16:40:46.156Z,2.80
2023-04-22T16:45:46.870Z,3.50
2023-04-22T16:50:46.177Z,3.70
2023-04-22T16:55:48.225Z,3.80
2023-04-22T17:00:48.777Z,3.40
2023-04-22T17:05:48.278Z,3.70
2023-04-22T17:10:52.073Z,3.30
2023-04-22T17:15:51.588Z,3.30
2023-04-22T17:20:51.527Z,3.10
2023-04-22T17:25:51.096Z,3.10
2023-04-22T17:30:50.724Z,3.20
2023-04-22T17:35:50.207Z,3.90
2023-04-22T17:40:52.539Z,3.90
2023-04-22T17:45:51.259Z,3.80
2023-04-22T17:50:50.938Z,3.70
2023-04-22T17:55:50.238Z,3.80
2023-04-22T18:00:50.131Z,3.40
2023-04-22T18:05:49.229Z,4.40
2023-04-22T18:10:48.712Z,5.30
2023-04-22T18:15:48.133Z,5.80
2023-04-22T18:20:47.360Z,6.00
2023-04-22T18:25:48.199Z,5.60
2023-04-22T18:30:48.444Z,6.80
2023-04-22T18:35:47.674Z,7.40
2023-04-22T18:40:47.091Z,8.80
2023-04-22T18:45:46.953Z,9.90
2023-04-22T18:50:46.965Z,8.20
2023-04-22T18:55:47.409Z,8.20
2023-04-22T19:00:48.055Z,9.10
2023-04-22T19:05:50.954Z,8.80
2023-04-22T19:10:50.499Z,11.30
2023-04-22T19:15:49.678Z,12.00
2023-04-22T19:20:49.322Z,11.60
2023-04-22T19:25:49.760Z,12.60
2023-04-22T19:30:49.856Z,11.00
2023-04-22T19:35:49.047Z,11.30
2023-04-22T19:40:50.495Z,11.60
2023-04-22T19:45:50.527Z,11.60
2023-04-22T19:50:51.142Z,10.40
2023-04-22T19:55:52.641Z,11.80
2023-04-22T20:00:53.640Z,13.30
2023-04-22T20:05:55.716Z,13.00
2023-04-22T20:10:56.748Z,14.20
2023-04-22T20:16:11.984Z,15.60
2023-04-22T20:21:13.063Z,14.30
2023-04-22T20:26:13.497Z,12.60
2023-04-22T20:31:13.833Z,12.90
2023-04-22T20:36:16.482Z,11.80
2023-04-22T20:41:19.043Z,13.40
2023-04-22T20:46:20.207Z,10.90
2023-04-22T20:51:24.418Z,9.50
2023-04-22T20:56:23.272Z,9.70
2023-04-22T21:01:23.056Z,9.80
2023-04-22T21:06:24.326Z,9.20
2023-04-22T21:11:26.769Z,9.30
2023-04-22T21:16:31.718Z,10.40
2023-04-22T21:21:36.206Z,10.30
2023-04-22T21:26:37.619Z,9.70
2023-04-22T21:31:38.050Z,10.00
2023-04-22T21:36:37.687Z,10.30
2023-04-22T21:41:37.611Z,10.80
2023-04-22T21:46:37.212Z,10.10
2023-04-22T21:51:40.245Z,13.00
2023-04-22T21:56:40.729Z,11.50
2023-04-22T22:01:39.606Z,11.50
2023-04-22T22:06:38.735Z,10.20
2023-04-22T22:11:41.053Z,9.90
2023-04-22T22:16:40.447Z,10.50
2023-04-22T22:21:39.402Z,9.40
2023-04-22T22:26:41.161Z,9.90
2023-04-22T22:31:40.063Z,9.10
2023-04-22T22:36:39.039Z,7.70
2023-04-22T22:41:38.357Z,8.50
2023-04-22T22:46:40.427Z,8.50
2023-04-22T22:51:40.340Z,7.70
2023-04-22T22:56:39.542Z,9.00
2023-04-22T23:01:39.482Z,9.30
2023-04-22T23:06:38.760Z,9.10
2023-04-22T23:11:38.168Z,8.50
2023-04-22T23:16:38.293Z,9.60
2023-04-22T23:21:39.128Z,9.70
2023-04-22T23:26:40.101Z,9.90
2023-04-22T23:31:41.284Z,9.10
2023-04-22T23:36:41.305Z,7.90
2023-04-22T23:41:40.981Z,8.50
2023-04-22T23:46:40.694Z,8.70
2023-04-22T23:51:39.706Z,8.90
2023-04-22T23:56:45.605Z,8.30
